• Join FlightAware (Why Join?)
  • Login
  • US Flag 
02:54AM EDT


 

Airport Tracker/Info


-or-


 

Live Flight TrackerFlight Track Log ✈ FD412 ✈ 24-Jul-2013 ✈ YBTL / TSV - YBMA / ISA

Flight Track Log - Related Links

Times and Time Zones

All times are in EDT time to prevent confusion due to time zone crossing. See the FD412 flight status page for this flight to view local times or setup timezone preferences in your user account.

Time Position Orientation Groundspeed Altitude Reporting Facility
EDT Latitude Longitude Course Direction KTS MPH feet Rate Location/Type
05:41AM -19.2400 146.7730 26° Northeast 128 147 200  Level FlightAware
05:42AM -19.2310 146.7780 28° Northeast 142 163 700 1,620 Climbing FlightAware
05:42AM -19.2110 146.7850 18° North 159 183 1,400 1,620 Climbing FlightAware
05:42AM -19.1920 146.7940 24° Northeast 173 199 2,200 1,620 Climbing FlightAware
05:43AM -19.1580 146.7890 352° North 182 209 3,300 1,500 Climbing FlightAware
05:43AM -19.1550 146.7820 294° West 177 204 3,600 1,680 Climbing FlightAware
05:44AM -19.1530 146.7730 283° West 173 199 3,900 1,740 Climbing FlightAware
05:44AM -19.1580 146.7570 252° West 169 194 4,500 1,680 Climbing FlightAware
05:44AM -19.1660 146.7380 246° West 167 192 5,200 1,620 Climbing FlightAware
05:45AM -19.1750 146.7180 245° Southwest 169 194 6,000 1,740 Climbing FlightAware
05:45AM -19.1830 146.7000 245° Southwest 160 184 6,800 1,860 Climbing FlightAware
05:46AM -19.1940 146.6770 243° Southwest 156 180 7,700 1,440 Climbing FlightAware
05:47AM -19.2140 146.6360 243° Southwest 169 194 8,900 1,260 Climbing FlightAware
05:47AM -19.2200 146.6260 238° Southwest 171 197 9,200 1,200 Climbing FlightAware
05:47AM -19.2270 146.6180 227° Southwest 175 201 9,500 1,320 Climbing FlightAware
05:48AM -19.2550 146.5870 226° Southwest 184 212 10,600 1,620 Climbing FlightAware
05:49AM -19.2790 146.5610 226° Southwest 178 205 11,800 1,740 Climbing FlightAware
05:49AM -19.2972 146.5407 226° Southwest 171 197 12,700 1,500 Climbing Aus ATC (RADAR)
05:49AM -19.3050 146.5320 226° Southwest 172 198 12,900 1,320 Climbing FlightAware
05:50AM -19.3240 146.5110 226° Southwest 170 196 13,800 1,860 Climbing FlightAware
05:50AM -19.3258 146.5096 226° Southwest 171 197 14,100 1,620 Climbing Aus ATC (RADAR)
05:50AM -19.3460 146.4874 226° Southwest 177 204 14,800 960 Climbing Aus ATC (RADAR)
05:51AM -19.3470 146.4860 226° Southwest 175 201 14,700 1,500 Descending FlightAware
05:51AM -19.3700 146.4600 226° Southwest 169 194 15,900 1,920 Climbing FlightAware
05:51AM -19.3710 146.4601 226° Southwest 174 200 16,100 120 Climbing Aus ATC (RADAR)
05:52AM -19.3940 146.4340 226° Southwest 209 241 16,000 -120 Descending FlightAware
05:53AM -19.4240 146.4010 226° Southwest 228 262 16,000  Level FlightAware
05:53AM -19.4570 146.3650 226° Southwest 229 264 16,000  Level FlightAware
05:54AM -19.4900 146.3290 226° Southwest 232 267 16,000  Level FlightAware
05:55AM -19.5210 146.2960 225° Southwest 233 268 16,000  Level FlightAware
05:55AM -19.5460 146.2680 227° Southwest 234 269 16,000  Level FlightAware
05:56AM -19.5780 146.2330 226° Southwest 234 269 16,000  Level FlightAware
05:57AM -19.6090 146.1990 226° Southwest 235 270 16,000  Level FlightAware
05:57AM -19.6350 146.1710 225° Southwest 236 272 16,000  Level FlightAware
05:58AM -19.6660 146.1370 225° Southwest 236 272 16,000 240 Level FlightAware
05:58AM -19.6694 146.1334 225° Southwest 232 267 16,200 300 Climbing Aus ATC (RADAR)
05:59AM -19.6963 146.1040 225° Southwest 236 272 16,200 -300 Level Aus ATC (RADAR)
05:59AM -19.7000 146.0990 225° Southwest 238 274 16,000  Descending FlightAware
05:59AM -19.7303 146.0664 225° Southwest 230 265 16,200  Climbing Aus ATC (RADAR)
05:59AM -19.7300 146.0660 225° Southwest 238 274 16,000 -300 Descending FlightAware
06:00AM -19.7650 146.0280 226° Southwest 237 273 16,000  Level FlightAware
06:01AM -19.7960 145.9940 226° Southwest 237 273 16,000  Level FlightAware
06:01AM -19.8270 145.9590 227° Southwest 236 272 16,000  Level FlightAware
06:02AM -19.8580 145.9250 226° Southwest 237 273 16,000  Level FlightAware
06:03AM -19.8880 145.8920 226° Southwest 237 273 16,000 120 Level FlightAware
06:03AM -19.9204 145.8564 226° Southwest 228 262 16,200  Climbing Aus ATC (RADAR)
06:03AM -19.9210 145.8540 226° Southwest 237 273 16,000 -300 Descending FlightAware
06:04AM -19.9490 145.8230 226° Southwest 237 273 16,000 120 Level FlightAware
06:05AM -19.9777 145.7928 226° Southwest 238 274 16,200  Climbing Aus ATC (RADAR)
06:05AM -19.9850 145.7840 226° Southwest 238 274 16,000 -240 Descending FlightAware
06:06AM -20.0090 145.7580 226° Southwest 238 274 16,000 120 Level FlightAware
06:06AM -20.0426 145.7211 226° Southwest 235 270 16,200  Climbing Aus ATC (RADAR)
06:06AM -20.0400 145.7230 226° Southwest 238 274 16,000 -300 Descending FlightAware
06:07AM -20.0630 145.6980 226° Southwest 238 274 16,000  Level FlightAware
06:08AM -20.0940 145.6630 227° Southwest 238 274 16,000  Level FlightAware
06:08AM -20.1180 145.6370 225° Southwest 238 274 16,000 120 Level FlightAware
06:09AM -20.1823 145.5660 225° Southwest 226 260 16,200 120 Climbing Aus ATC (RADAR)
06:10AM -20.2082 145.5369 227° Southwest 224 258 16,200  Level Aus ATC (RADAR)
06:10AM -20.2303 145.5121 227° Southwest 226 260 16,200  Level Aus ATC (RADAR)
06:11AM -20.2567 145.4837 225° Southwest 229 264 16,200  Level Aus ATC (RADAR)
06:11AM -20.2820 145.4550 227° Southwest 223 257 16,200  Level Aus ATC (RADAR)
06:12AM -20.3082 145.4261 226° Southwest 225 259 16,200  Level Aus ATC (RADAR)
06:13AM -20.3339 145.3971 227° Southwest 229 264 16,200  Level Aus ATC (RADAR)
06:13AM -20.3598 145.3686 226° Southwest 225 259 16,200  Level Aus ATC (RADAR)
06:14AM -20.3854 145.3397 227° Southwest 222 255 16,200  Level Aus ATC (RADAR)
06:15AM -20.4223 145.2986 226° Southwest 225 259 16,200  Level Aus ATC (RADAR)
06:16AM -20.4662 145.2495 226° Southwest 223 257 16,200  Level Aus ATC (RADAR)
06:16AM -20.4996 145.2125 226° Southwest 227 261 16,200  Level Aus ATC (RADAR)
06:17AM -20.5248 145.1834 227° Southwest 229 264 16,200  Level Aus ATC (RADAR)
06:18AM -20.5583 145.1474 225° Southwest 221 254 16,200  Level Aus ATC (RADAR)
06:19AM -20.6021 145.0976 227° Southwest 228 262 16,200  Level Aus ATC (RADAR)
06:20AM -20.6470 145.0473 226° Southwest 234 269 16,200  Level Aus ATC (RADAR)
06:21AM -20.6914 144.9974 226° Southwest 232 267 16,200  Level Aus ATC (RADAR)
06:21AM -20.7206 144.9638 227° Southwest 232 267 16,200  Level Aus ATC (RADAR)
06:22AM -20.7469 144.9349 226° Southwest 232 267 16,200  Level Aus ATC (RADAR)
06:23AM -20.7732 144.9057 226° Southwest 233 268 16,200  Level Aus ATC (RADAR)
06:23AM -20.7989 144.8757 227° Southwest 234 269 16,200  Level Aus ATC (RADAR)
06:24AM -20.8254 144.8460 226° Southwest 235 270 16,200  Level Aus ATC (RADAR)
06:24AM -20.8632 144.8030 227° Southwest 239 275 16,200  Level Aus ATC (RADAR)
06:25AM -20.9093 144.7514 226° Southwest 240 276 16,200  Level Aus ATC (RADAR)
06:26AM -20.9431 144.7115 228° Southwest 242 278 16,200  Level Aus ATC (RADAR)
06:27AM -20.9694 144.6803 228° Southwest 244 281 16,200  Level Aus ATC (RADAR)
06:27AM -20.9960 144.6492 228° Southwest 242 278 16,200  Level Aus ATC (RADAR)
06:28AM -21.0191 144.6225 227° Southwest 244 281 16,200 -300 Level Aus ATC (RADAR)
06:28AM -21.0360 144.6090 227° Southwest 244 281 16,000 -240 Descending FlightAware
06:29AM -21.0650 144.5760 227° Southwest 244 281 16,000  Level FlightAware
06:30AM -21.1010 144.5340 227° Southwest 245 282 16,000 120 Level FlightAware
06:30AM -21.1275 144.4992 227° Southwest 245 282 16,200  Climbing Aus ATC (RADAR)
06:30AM -21.1350 144.4960 227° Southwest 245 282 16,000 -300 Descending FlightAware
06:31AM -21.1680 144.4590 226° Southwest 245 282 16,000  Level FlightAware
06:32AM -21.2000 144.4230 226° Southwest 246 283 16,000  Level FlightAware
06:32AM -21.2250 144.3950 226° Southwest 244 281 16,000  Level FlightAware
06:33AM -21.2570 144.3580 227° Southwest 244 281 16,000  Level FlightAware
06:34AM -21.2920 144.3180 227° Southwest 243 280 16,000  Level FlightAware
06:34AM -21.3250 144.2810 226° Southwest 243 280 16,000 120 Level FlightAware
06:35AM -21.3494 144.2489 226° Southwest 243 280 16,200  Climbing Aus ATC (RADAR)
06:35AM -21.3580 144.2430 226° Southwest 242 278 16,000 -300 Descending FlightAware
06:36AM -21.3870 144.2100 227° Southwest 242 278 16,000 120 Level FlightAware
06:36AM -21.4101 144.1779 227° Southwest 243 280 16,200  Climbing Aus ATC (RADAR)
06:36AM -21.4210 144.1720 227° Southwest 242 278 16,000 -240 Descending FlightAware
06:37AM -21.4560 144.1310 227° Southwest 241 277 16,000  Level FlightAware
06:38AM -21.4860 144.0980 226° Southwest 239 275 16,000  Level FlightAware
06:39AM -21.5200 144.0590 227° Southwest 238 274 16,000  Level FlightAware
06:39AM -21.5490 144.0260 227° Southwest 238 274 16,000  Level FlightAware
06:39AM -21.5550 144.0190 227° Southwest 237 273 16,000  Level FlightAware
06:42AM -21.6510 143.9090 227° Southwest 237 273 16,000  Level FlightAware
06:42AM -21.6810 143.8750 226° Southwest 237 273 16,000  Level FlightAware
06:43AM -21.6902 143.8547 213° Southwest 100  Descending Aus ATC (Calculated)
06:43AM -21.7100 143.8410 227° Southwest 237 273 16,000 16,440 Climbing FlightAware
06:44AM -21.7390 143.8080 227° Southwest 238 274 16,000  Level FlightAware
06:44AM -21.7730 143.7700 226° Southwest 237 273 16,000  Level FlightAware
06:45AM -21.7746 143.7590 217° Southwest  Descending Aus ATC (Calculated)
06:45AM -21.8000 143.7380 228° Southwest 237 273 16,000 21,780 Climbing FlightAware
06:46AM -21.8290 143.7040 228° Southwest 237 273 16,000 -540 Level FlightAware
06:46AM -21.8610 143.6680 226° Southwest 250 288 15,300 -1,200 Descending FlightAware
06:46AM -21.8486 143.6749 223° Southwest 100 -1,440 Descending Aus ATC (Calculated)
06:47AM -21.8920 143.6310 228° Southwest 256 295 14,400 11,820 Climbing FlightAware
06:48AM -21.9290 143.5890 228° Southwest 261 300 13,300 -1,440 Descending FlightAware
06:48AM -21.9131 143.6015 224° Southwest -1,320 Descending Aus ATC (Calculated)
06:48AM -21.9670 143.5450 228° Southwest 262 302 12,300 8,640 Climbing FlightAware
06:49AM -22.0000 143.5080 226° Southwest 256 295 11,400 -1,500 Descending FlightAware
06:50AM -22.0350 143.4670 227° Southwest 258 297 10,200 -1,740 Descending FlightAware
06:50AM -22.0430 143.4590 223° Southwest 261 300 9,900 -1,500 Descending FlightAware
06:50AM -22.0650 143.4330 228° Southwest 250 288 9,300 -1,320 Descending FlightAware
06:51AM -22.0263 143.4724 225° Southwest 100 -1,260 Descending Aus ATC (Calculated)
06:51AM -22.0830 143.4120 227° Southwest 244 281 8,800 13,680 Climbing FlightAware
06:51AM -22.0685 143.4241 224° Southwest -1,320 Descending Aus ATC (Calculated)
06:51AM -22.1080 143.3830 227° Southwest 238 274 8,100 12,120 Climbing FlightAware
06:52AM -22.1290 143.3590 227° Southwest 238 274 7,500 -1,320 Descending FlightAware
06:52AM -22.1430 143.3430 227° Southwest 237 273 7,100 -1,200 Descending FlightAware
06:52AM -22.1550 143.3290 227° Southwest 237 273 6,800 -780 Descending FlightAware
06:53AM -22.1830 143.2970 227° Southwest 237 273 6,400 -600 Descending FlightAware
06:54AM -22.1799 143.2967 360° North 100 -9,480 Descending Aus ATC (Calculated)
06:54AM -22.1799 143.2967 227° Southwest -240 Descending Aus ATC (Calculated)
06:56AM -22.2386 143.2294 227° Southwest  Level FlightAware Approximate
06:57AM -22.2805 143.1812 227° Southwest  Level FlightAware Approximate
06:57AM -22.3653 143.0838 360° North 100  Level Aus ATC (Calculated)
06:59AM -22.2797 143.0838 North  Level FlightAware Approximate
07:00AM -22.2537 143.0240 43° Northeast  Level Estimated
07:01AM -22.2277 142.9641 43° Northeast  Level Estimated
07:02AM -22.2017 142.9043 43° Northeast  Level Estimated
07:03AM -22.1757 142.8446 43° Northeast  Level Estimated
07:04AM -22.1496 142.7848 43° Northeast  Level Estimated
07:05AM -22.1235 142.7251 43° Northeast  Level Estimated
07:06AM -22.0974 142.6654 43° Northeast  Level Estimated
07:07AM -22.0713 142.6057 43° Northeast  Level Estimated
07:08AM -22.0452 142.5460 43° Northeast  Level Estimated
07:09AM -22.0190 142.4864 43° Northeast  Level Estimated
07:10AM -21.9928 142.4267 43° Northeast  Level Estimated
07:11AM -21.9666 142.3672 43° Northeast  Level Estimated
07:12AM -21.9404 142.3076 43° Northeast  Level Estimated
07:13AM -21.9141 142.2480 43° Northeast  Level Estimated
07:14AM -21.8878 142.1885 43° Northeast  Level Estimated
07:15AM -21.8616 142.1290 43° Northeast  Level Estimated
07:16AM -21.8352 142.0695 43° Northeast  Level Estimated
07:17AM -21.8089 142.0100 43° Northeast  Level Estimated
07:18AM -21.7825 141.9506 43° Northeast  Level Estimated
07:19AM -21.7562 141.8911 43° Northeast  Level Estimated
07:20AM -21.7298 141.8317 43° Northeast  Level Estimated
07:21AM -21.7033 141.7724 43° Northeast  Level Estimated
07:22AM -21.6769 141.7130 43° Northeast  Level Estimated
07:23AM -21.6504 141.6537 43° Northeast  Level Estimated
07:24AM -21.6240 141.5943 43° Northeast  Level Estimated
07:25AM -21.5975 141.5350 43° Northeast  Level Estimated
07:26AM -21.5709 141.4758 43° Northeast  Level Estimated
07:27AM -21.5444 141.4165 43° Northeast  Level Estimated
07:28AM -21.5178 141.3573 43° Northeast  Level Estimated
07:29AM -21.4912 141.2981 43° Northeast  Level Estimated
07:30AM -21.4646 141.2389 43° Northeast  Level Estimated
07:31AM -21.4380 141.1797 43° Northeast  Level Estimated
07:32AM -21.4113 141.1206 43° Northeast  Level Estimated
07:33AM -21.3846 141.0615 43° Northeast  Level Estimated
07:34AM -21.3580 141.0024 43° Northeast  Level Estimated
07:35AM -21.3312 140.9433 43° Northeast  Level Estimated
07:36AM -21.3045 140.8842 43° Northeast  Level Estimated
07:37AM -21.2778 140.8252 43° Northeast  Level Estimated
07:38AM -21.2510 140.7662 43° Northeast  Level Estimated
07:39AM -21.2242 140.7072 43° Northeast  Level Estimated
07:40AM -21.1973 140.6482 43° Northeast  Level Estimated
07:41AM -21.1705 140.5893 43° Northeast  Level Estimated
07:42AM -21.1437 140.5304 43° Northeast  Level Estimated
07:43AM -21.1168 140.4715 43° Northeast  Level Estimated
07:44AM -21.0899 140.4126 43° Northeast  Level Estimated
07:45AM -21.0630 140.3537 43° Northeast  Level Estimated
07:46AM -21.0360 140.2949 43° Northeast  Level Estimated
07:47AM -21.0091 140.2361 43° Northeast  Level Estimated
07:48AM -20.9821 140.1772 43° Northeast  Level Estimated
07:49AM -20.9551 140.1185 43° Northeast  Level Estimated
07:50AM -20.9280 140.0597 43° Northeast  Level Estimated
07:51AM -20.9010 140.0010 43° Northeast  Level Estimated
07:52AM -20.8739 139.9422 43° Northeast  Level Estimated
07:53AM -20.8469 139.8836 43° Northeast  Level Estimated
07:54AM -20.8198 139.8249 43° Northeast  Level Estimated
07:55AM -20.7927 139.7662 43° Northeast  Level Estimated
07:56AM -20.7655 139.7076 43° Northeast  Level Estimated